sensor_id;sensor_type;location;lat;lon;timestamp;P1;durP1;ratioP1;P2;durP2;ratioP2
51654;SDS011;37732;53.106;7.030;2022-10-19T00:01:38;10.35;;;3.60;;
51654;SDS011;37732;53.106;7.030;2022-10-19T00:04:04;5.90;;;2.50;;
51654;SDS011;37732;53.106;7.030;2022-10-19T00:06:31;7.43;;;2.67;;
51654;SDS011;37732;53.106;7.030;2022-10-19T00:09:05;9.20;;;2.90;;
51654;SDS011;37732;53.106;7.030;2022-10-19T00:11:43;8.32;;;2.47;;
51654;SDS011;37732;53.106;7.030;2022-10-19T00:14:11;7.32;;;2.75;;
51654;SDS011;37732;53.106;7.030;2022-10-19T00:16:39;11.02;;;3.65;;
51654;SDS011;37732;53.106;7.030;2022-10-19T00:19:10;6.00;;;2.80;;
51654;SDS011;37732;53.106;7.030;2022-10-19T00:21:39;11.35;;;3.15;;
51654;SDS011;37732;53.106;7.030;2022-10-19T00:24:05;8.80;;;3.33;;
51654;SDS011;37732;53.106;7.030;2022-10-19T00:26:31;7.97;;;2.55;;
51654;SDS011;37732;53.106;7.030;2022-10-19T00:28:58;5.57;;;2.22;;
51654;SDS011;37732;53.106;7.030;2022-10-19T00:31:24;9.07;;;2.72;;
51654;SDS011;37732;53.106;7.030;2022-10-19T00:33:50;8.40;;;2.72;;
51654;SDS011;37732;53.106;7.030;2022-10-19T00:36:26;5.82;;;2.15;;
51654;SDS011;37732;53.106;7.030;2022-10-19T00:38:54;5.82;;;2.00;;
51654;SDS011;37732;53.106;7.030;2022-10-19T00:41:22;6.68;;;2.42;;
51654;SDS011;37732;53.106;7.030;2022-10-19T00:46:24;5.55;;;2.20;;
51654;SDS011;37732;53.106;7.030;2022-10-19T00:48:53;6.40;;;2.10;;
51654;SDS011;37732;53.106;7.030;2022-10-19T00:51:22;6.68;;;2.08;;
51654;SDS011;37732;53.106;7.030;2022-10-19T00:53:50;7.85;;;2.40;;
51654;SDS011;37732;53.106;7.030;2022-10-19T00:56:15;5.47;;;1.80;;
51654;SDS011;37732;53.106;7.030;2022-10-19T00:58:42;8.50;;;2.83;;
51654;SDS011;37732;53.106;7.030;2022-10-19T01:01:08;8.27;;;2.47;;
51654;SDS011;37732;53.106;7.030;2022-10-19T01:03:38;3.83;;;2.30;;
51654;SDS011;37732;53.106;7.030;2022-10-19T01:06:04;6.10;;;2.10;;
51654;SDS011;37732;53.106;7.030;2022-10-19T01:08:31;8.75;;;2.35;;
51654;SDS011;37732;53.106;7.030;2022-10-19T01:11:01;9.30;;;2.00;;
51654;SDS011;37732;53.106;7.030;2022-10-19T01:14:27;9.00;;;2.25;;
51654;SDS011;37732;53.106;7.030;2022-10-19T01:20:40;7.28;;;1.92;;
51654;SDS011;37732;53.106;7.030;2022-10-19T01:23:11;7.18;;;2.13;;
51654;SDS011;37732;53.106;7.030;2022-10-19T01:34:42;8.93;;;2.10;;
51654;SDS011;37732;53.106;7.030;2022-10-19T01:37:27;9.90;;;2.63;;
51654;SDS011;37732;53.106;7.030;2022-10-19T01:40:11;8.35;;;2.10;;
51654;SDS011;37732;53.106;7.030;2022-10-19T01:42:58;10.48;;;2.40;;
51654;SDS011;37732;53.106;7.030;2022-10-19T01:45:41;7.38;;;1.90;;
51654;SDS011;37732;53.106;7.030;2022-10-19T01:48:14;8.07;;;2.60;;
51654;SDS011;37732;53.106;7.030;2022-10-19T01:53:16;9.52;;;1.92;;
51654;SDS011;37732;53.106;7.030;2022-10-19T01:55:43;5.57;;;1.80;;
51654;SDS011;37732;53.106;7.030;2022-10-19T01:58:12;6.03;;;1.73;;
51654;SDS011;37732;53.106;7.030;2022-10-19T02:00:42;5.75;;;1.95;;
51654;SDS011;37732;53.106;7.030;2022-10-19T02:03:10;7.47;;;1.60;;
51654;SDS011;37732;53.106;7.030;2022-10-19T02:05:37;7.75;;;1.80;;
51654;SDS011;37732;53.106;7.030;2022-10-19T02:08:11;6.53;;;1.92;;
51654;SDS011;37732;53.106;7.030;2022-10-19T02:10:41;5.68;;;1.75;;
51654;SDS011;37732;53.106;7.030;2022-10-19T02:13:09;8.07;;;2.63;;
51654;SDS011;37732;53.106;7.030;2022-10-19T02:15:38;7.15;;;2.10;;
51654;SDS011;37732;53.106;7.030;2022-10-19T02:18:08;7.05;;;2.83;;
51654;SDS011;37732;53.106;7.030;2022-10-19T02:20:35;6.97;;;2.05;;
51654;SDS011;37732;53.106;7.030;2022-10-19T02:23:02;8.30;;;1.98;;
51654;SDS011;37732;53.106;7.030;2022-10-19T02:25:29;8.02;;;2.20;;
51654;SDS011;37732;53.106;7.030;2022-10-19T02:27:55;6.45;;;2.10;;
51654;SDS011;37732;53.106;7.030;2022-10-19T02:30:21;9.52;;;2.20;;
51654;SDS011;37732;53.106;7.030;2022-10-19T02:32:48;7.55;;;2.10;;
51654;SDS011;37732;53.106;7.030;2022-10-19T02:35:14;7.68;;;2.00;;
51654;SDS011;37732;53.106;7.030;2022-10-19T02:37:40;6.38;;;2.03;;
51654;SDS011;37732;53.106;7.030;2022-10-19T02:40:06;5.13;;;1.60;;
51654;SDS011;37732;53.106;7.030;2022-10-19T02:42:34;11.60;;;2.70;;
51654;SDS011;37732;53.106;7.030;2022-10-19T02:47:47;4.65;;;1.88;;
51654;SDS011;37732;53.106;7.030;2022-10-19T02:50:16;6.25;;;1.70;;
51654;SDS011;37732;53.106;7.030;2022-10-19T02:52:44;6.50;;;1.85;;
51654;SDS011;37732;53.106;7.030;2022-10-19T02:55:10;5.20;;;1.70;;
51654;SDS011;37732;53.106;7.030;2022-10-19T02:57:36;4.80;;;1.38;;
51654;SDS011;37732;53.106;7.030;2022-10-19T03:00:03;6.78;;;2.03;;
51654;SDS011;37732;53.106;7.030;2022-10-19T03:02:30;12.93;;;2.17;;
51654;SDS011;37732;53.106;7.030;2022-10-19T03:04:55;5.45;;;1.63;;
51654;SDS011;37732;53.106;7.030;2022-10-19T03:07:21;9.50;;;2.47;;
51654;SDS011;37732;53.106;7.030;2022-10-19T03:09:47;6.75;;;1.83;;
51654;SDS011;37732;53.106;7.030;2022-10-19T03:12:14;6.10;;;2.08;;
51654;SDS011;37732;53.106;7.030;2022-10-19T03:14:40;5.88;;;1.80;;
51654;SDS011;37732;53.106;7.030;2022-10-19T03:17:06;7.70;;;1.88;;
51654;SDS011;37732;53.106;7.030;2022-10-19T03:19:33;5.97;;;1.77;;
51654;SDS011;37732;53.106;7.030;2022-10-19T03:21:59;7.57;;;1.83;;
51654;SDS011;37732;53.106;7.030;2022-10-19T03:24:25;7.15;;;1.67;;
51654;SDS011;37732;53.106;7.030;2022-10-19T03:26:50;7.57;;;1.70;;
51654;SDS011;37732;53.106;7.030;2022-10-19T03:29:16;7.05;;;1.73;;
51654;SDS011;37732;53.106;7.030;2022-10-19T03:31:42;4.70;;;1.60;;
51654;SDS011;37732;53.106;7.030;2022-10-19T03:34:07;6.20;;;2.40;;
51654;SDS011;37732;53.106;7.030;2022-10-19T03:36:34;5.78;;;1.80;;
51654;SDS011;37732;53.106;7.030;2022-10-19T03:39:02;6.15;;;1.98;;
51654;SDS011;37732;53.106;7.030;2022-10-19T03:41:31;5.40;;;1.73;;
51654;SDS011;37732;53.106;7.030;2022-10-19T03:43:58;7.13;;;1.98;;
51654;SDS011;37732;53.106;7.030;2022-10-19T03:46:24;6.75;;;1.80;;
51654;SDS011;37732;53.106;7.030;2022-10-19T03:48:50;5.20;;;1.80;;
51654;SDS011;37732;53.106;7.030;2022-10-19T03:51:18;6.60;;;1.60;;
51654;SDS011;37732;53.106;7.030;2022-10-19T03:53:47;7.30;;;2.08;;
51654;SDS011;37732;53.106;7.030;2022-10-19T03:56:16;2.88;;;1.45;;
51654;SDS011;37732;53.106;7.030;2022-10-19T03:58:44;7.68;;;2.30;;
51654;SDS011;37732;53.106;7.030;2022-10-19T04:01:15;7.95;;;2.25;;
51654;SDS011;37732;53.106;7.030;2022-10-19T04:03:46;6.10;;;1.88;;
51654;SDS011;37732;53.106;7.030;2022-10-19T04:06:12;9.13;;;2.67;;
51654;SDS011;37732;53.106;7.030;2022-10-19T04:08:39;11.07;;;2.55;;
51654;SDS011;37732;53.106;7.030;2022-10-19T04:11:06;9.90;;;2.50;;
51654;SDS011;37732;53.106;7.030;2022-10-19T04:13:34;7.00;;;1.85;;
51654;SDS011;37732;53.106;7.030;2022-10-19T04:16:00;6.93;;;2.42;;
51654;SDS011;37732;53.106;7.030;2022-10-19T04:18:26;7.95;;;2.50;;
51654;SDS011;37732;53.106;7.030;2022-10-19T04:20:55;9.38;;;2.60;;
51654;SDS011;37732;53.106;7.030;2022-10-19T04:23:22;11.32;;;2.83;;
51654;SDS011;37732;53.106;7.030;2022-10-19T04:25:50;7.65;;;2.88;;
51654;SDS011;37732;53.106;7.030;2022-10-19T04:28:15;9.23;;;2.53;;
51654;SDS011;37732;53.106;7.030;2022-10-19T04:30:41;8.93;;;2.88;;
51654;SDS011;37732;53.106;7.030;2022-10-19T04:33:07;7.30;;;2.40;;
51654;SDS011;37732;53.106;7.030;2022-10-19T04:35:32;12.35;;;3.15;;
51654;SDS011;37732;53.106;7.030;2022-10-19T04:37:58;10.50;;;3.00;;
51654;SDS011;37732;53.106;7.030;2022-10-19T04:40:24;9.50;;;2.90;;
51654;SDS011;37732;53.106;7.030;2022-10-19T04:42:50;9.05;;;2.90;;
51654;SDS011;37732;53.106;7.030;2022-10-19T04:45:15;14.00;;;3.17;;
51654;SDS011;37732;53.106;7.030;2022-10-19T04:47:41;12.75;;;2.72;;
51654;SDS011;37732;53.106;7.030;2022-10-19T04:50:07;9.75;;;3.20;;
51654;SDS011;37732;53.106;7.030;2022-10-19T04:52:33;7.03;;;2.58;;
51654;SDS011;37732;53.106;7.030;2022-10-19T04:54:59;10.65;;;2.95;;
51654;SDS011;37732;53.106;7.030;2022-10-19T04:57:25;12.40;;;2.90;;
51654;SDS011;37732;53.106;7.030;2022-10-19T04:59:51;7.70;;;2.28;;
51654;SDS011;37732;53.106;7.030;2022-10-19T05:02:16;8.25;;;2.55;;
51654;SDS011;37732;53.106;7.030;2022-10-19T05:04:42;10.88;;;2.97;;
51654;SDS011;37732;53.106;7.030;2022-10-19T05:07:08;10.98;;;2.97;;
51654;SDS011;37732;53.106;7.030;2022-10-19T05:09:33;12.80;;;3.00;;
51654;SDS011;37732;53.106;7.030;2022-10-19T05:11:59;15.70;;;3.33;;
51654;SDS011;37732;53.106;7.030;2022-10-19T05:14:24;10.70;;;3.03;;
51654;SDS011;37732;53.106;7.030;2022-10-19T05:16:50;12.68;;;3.08;;
51654;SDS011;37732;53.106;7.030;2022-10-19T05:19:16;9.38;;;2.42;;
51654;SDS011;37732;53.106;7.030;2022-10-19T05:21:41;8.82;;;3.83;;
51654;SDS011;37732;53.106;7.030;2022-10-19T05:24:09;9.80;;;2.83;;
51654;SDS011;37732;53.106;7.030;2022-10-19T05:26:36;11.57;;;3.47;;
51654;SDS011;37732;53.106;7.030;2022-10-19T05:29:02;7.50;;;2.47;;
51654;SDS011;37732;53.106;7.030;2022-10-19T05:31:31;9.63;;;3.08;;
51654;SDS011;37732;53.106;7.030;2022-10-19T05:33:58;9.40;;;2.83;;
51654;SDS011;37732;53.106;7.030;2022-10-19T05:38:52;11.88;;;3.00;;
51654;SDS011;37732;53.106;7.030;2022-10-19T05:41:19;11.02;;;2.90;;
51654;SDS011;37732;53.106;7.030;2022-10-19T05:43:46;7.05;;;3.00;;
51654;SDS011;37732;53.106;7.030;2022-10-19T05:46:16;11.07;;;2.67;;
51654;SDS011;37732;53.106;7.030;2022-10-19T05:48:43;11.15;;;2.97;;
51654;SDS011;37732;53.106;7.030;2022-10-19T05:51:10;10.55;;;3.08;;
51654;SDS011;37732;53.106;7.030;2022-10-19T05:53:38;10.75;;;2.80;;
51654;SDS011;37732;53.106;7.030;2022-10-19T05:56:04;9.27;;;2.83;;
51654;SDS011;37732;53.106;7.030;2022-10-19T05:58:31;7.80;;;2.97;;
51654;SDS011;37732;53.106;7.030;2022-10-19T06:00:58;10.75;;;2.90;;
51654;SDS011;37732;53.106;7.030;2022-10-19T06:03:24;9.63;;;2.80;;
51654;SDS011;37732;53.106;7.030;2022-10-19T06:05:51;10.52;;;2.88;;
51654;SDS011;37732;53.106;7.030;2022-10-19T06:08:19;7.35;;;2.95;;
51654;SDS011;37732;53.106;7.030;2022-10-19T06:10:45;12.63;;;3.25;;
51654;SDS011;37732;53.106;7.030;2022-10-19T06:13:12;11.60;;;2.88;;
51654;SDS011;37732;53.106;7.030;2022-10-19T06:15:39;10.88;;;3.00;;
51654;SDS011;37732;53.106;7.030;2022-10-19T06:18:05;7.63;;;2.20;;
51654;SDS011;37732;53.106;7.030;2022-10-19T06:20:35;9.93;;;3.33;;
51654;SDS011;37732;53.106;7.030;2022-10-19T06:23:02;9.57;;;2.53;;
51654;SDS011;37732;53.106;7.030;2022-10-19T06:25:29;12.63;;;3.00;;
51654;SDS011;37732;53.106;7.030;2022-10-19T06:27:55;11.45;;;2.90;;
51654;SDS011;37732;53.106;7.030;2022-10-19T06:30:21;12.02;;;2.80;;
51654;SDS011;37732;53.106;7.030;2022-10-19T06:32:47;10.07;;;2.35;;
51654;SDS011;37732;53.106;7.030;2022-10-19T06:35:13;12.27;;;2.80;;
51654;SDS011;37732;53.106;7.030;2022-10-19T06:37:40;9.55;;;2.40;;
51654;SDS011;37732;53.106;7.030;2022-10-19T06:40:06;9.27;;;2.35;;
51654;SDS011;37732;53.106;7.030;2022-10-19T06:42:32;11.18;;;2.83;;
51654;SDS011;37732;53.106;7.030;2022-10-19T06:44:58;6.97;;;2.17;;
51654;SDS011;37732;53.106;7.030;2022-10-19T06:47:23;8.02;;;2.80;;
51654;SDS011;37732;53.106;7.030;2022-10-19T06:49:55;8.38;;;2.67;;
51654;SDS011;37732;53.106;7.030;2022-10-19T06:52:21;8.23;;;2.70;;
51654;SDS011;37732;53.106;7.030;2022-10-19T06:54:47;8.23;;;2.13;;
51654;SDS011;37732;53.106;7.030;2022-10-19T06:57:12;10.82;;;2.38;;
51654;SDS011;37732;53.106;7.030;2022-10-19T06:59:38;6.75;;;2.47;;
51654;SDS011;37732;53.106;7.030;2022-10-19T07:02:04;9.77;;;3.50;;
51654;SDS011;37732;53.106;7.030;2022-10-19T07:04:30;9.35;;;2.55;;
51654;SDS011;37732;53.106;7.030;2022-10-19T07:06:56;7.63;;;2.30;;
51654;SDS011;37732;53.106;7.030;2022-10-19T07:09:22;6.55;;;2.15;;
51654;SDS011;37732;53.106;7.030;2022-10-19T07:11:47;10.13;;;3.25;;
51654;SDS011;37732;53.106;7.030;2022-10-19T07:14:13;12.10;;;2.20;;
51654;SDS011;37732;53.106;7.030;2022-10-19T07:16:39;8.15;;;2.20;;
51654;SDS011;37732;53.106;7.030;2022-10-19T07:19:05;9.10;;;2.58;;
51654;SDS011;37732;53.106;7.030;2022-10-19T07:21:31;6.50;;;1.90;;
51654;SDS011;37732;53.106;7.030;2022-10-19T07:23:56;8.32;;;3.03;;
51654;SDS011;37732;53.106;7.030;2022-10-19T07:26:23;10.18;;;3.15;;
51654;SDS011;37732;53.106;7.030;2022-10-19T07:28:52;10.05;;;2.40;;
51654;SDS011;37732;53.106;7.030;2022-10-19T07:31:20;7.43;;;2.35;;
51654;SDS011;37732;53.106;7.030;2022-10-19T07:33:54;10.55;;;2.97;;
51654;SDS011;37732;53.106;7.030;2022-10-19T07:38:47;7.13;;;2.25;;
51654;SDS011;37732;53.106;7.030;2022-10-19T07:41:14;5.50;;;2.00;;
51654;SDS011;37732;53.106;7.030;2022-10-19T07:43:42;7.93;;;2.28;;
51654;SDS011;37732;53.106;7.030;2022-10-19T07:46:11;7.95;;;2.38;;
51654;SDS011;37732;53.106;7.030;2022-10-19T07:48:46;6.28;;;2.30;;
51654;SDS011;37732;53.106;7.030;2022-10-19T07:51:13;9.07;;;2.65;;
51654;SDS011;37732;53.106;7.030;2022-10-19T07:53:40;6.55;;;2.45;;
51654;SDS011;37732;53.106;7.030;2022-10-19T07:56:07;14.77;;;2.63;;
51654;SDS011;37732;53.106;7.030;2022-10-19T07:58:35;10.88;;;2.50;;
51654;SDS011;37732;53.106;7.030;2022-10-19T08:01:06;9.20;;;2.78;;
51654;SDS011;37732;53.106;7.030;2022-10-19T08:03:40;5.90;;;2.40;;
51654;SDS011;37732;53.106;7.030;2022-10-19T08:06:07;7.35;;;2.03;;
51654;SDS011;37732;53.106;7.030;2022-10-19T08:08:37;7.78;;;3.03;;
51654;SDS011;37732;53.106;7.030;2022-10-19T08:11:11;13.60;;;3.65;;
51654;SDS011;37732;53.106;7.030;2022-10-19T08:13:39;10.10;;;2.42;;
51654;SDS011;37732;53.106;7.030;2022-10-19T08:16:05;7.75;;;2.35;;
51654;SDS011;37732;53.106;7.030;2022-10-19T08:19:07;13.43;;;2.95;;
51654;SDS011;37732;53.106;7.030;2022-10-19T08:21:38;8.02;;;2.20;;
51654;SDS011;37732;53.106;7.030;2022-10-19T08:24:06;7.70;;;2.28;;
51654;SDS011;37732;53.106;7.030;2022-10-19T08:26:32;6.53;;;2.47;;
51654;SDS011;37732;53.106;7.030;2022-10-19T08:28:59;7.13;;;2.30;;
51654;SDS011;37732;53.106;7.030;2022-10-19T08:31:28;7.95;;;2.50;;
51654;SDS011;37732;53.106;7.030;2022-10-19T08:33:54;9.48;;;2.40;;
51654;SDS011;37732;53.106;7.030;2022-10-19T08:36:20;8.35;;;2.60;;
51654;SDS011;37732;53.106;7.030;2022-10-19T08:38:46;10.05;;;2.58;;
51654;SDS011;37732;53.106;7.030;2022-10-19T08:49:24;11.68;;;2.42;;
51654;SDS011;37732;53.106;7.030;2022-10-19T08:51:53;7.65;;;2.35;;
51654;SDS011;37732;53.106;7.030;2022-10-19T08:54:22;9.23;;;2.10;;
51654;SDS011;37732;53.106;7.030;2022-10-19T08:57:13;8.48;;;2.38;;
51654;SDS011;37732;53.106;7.030;2022-10-19T08:59:42;6.40;;;2.00;;
51654;SDS011;37732;53.106;7.030;2022-10-19T09:05:23;7.93;;;2.58;;
51654;SDS011;37732;53.106;7.030;2022-10-19T09:07:55;6.07;;;1.73;;
51654;SDS011;37732;53.106;7.030;2022-10-19T09:10:25;9.60;;;2.10;;
51654;SDS011;37732;53.106;7.030;2022-10-19T09:13:01;9.07;;;2.92;;
51654;SDS011;37732;53.106;7.030;2022-10-19T09:15:48;9.30;;;2.45;;
51654;SDS011;37732;53.106;7.030;2022-10-19T09:18:20;11.00;;;2.38;;
51654;SDS011;37732;53.106;7.030;2022-10-19T09:21:04;9.60;;;2.67;;
51654;SDS011;37732;53.106;7.030;2022-10-19T09:23:39;6.60;;;2.50;;
51654;SDS011;37732;53.106;7.030;2022-10-19T09:26:13;7.22;;;2.20;;
51654;SDS011;37732;53.106;7.030;2022-10-19T09:28:48;6.97;;;2.83;;
51654;SDS011;37732;53.106;7.030;2022-10-19T09:31:38;8.52;;;2.30;;
51654;SDS011;37732;53.106;7.030;2022-10-19T09:36:49;8.77;;;3.25;;
51654;SDS011;37732;53.106;7.030;2022-10-19T09:39:17;10.07;;;2.88;;
51654;SDS011;37732;53.106;7.030;2022-10-19T09:41:45;8.55;;;2.42;;
51654;SDS011;37732;53.106;7.030;2022-10-19T09:44:15;12.65;;;1.98;;
51654;SDS011;37732;53.106;7.030;2022-10-19T09:46:57;7.38;;;2.45;;
51654;SDS011;37732;53.106;7.030;2022-10-19T09:49:44;5.30;;;1.88;;
51654;SDS011;37732;53.106;7.030;2022-10-19T09:52:21;10.93;;;3.08;;
51654;SDS011;37732;53.106;7.030;2022-10-19T09:54:49;11.40;;;2.67;;
51654;SDS011;37732;53.106;7.030;2022-10-19T09:57:24;9.10;;;3.00;;
51654;SDS011;37732;53.106;7.030;2022-10-19T09:59:50;9.30;;;2.75;;
51654;SDS011;37732;53.106;7.030;2022-10-19T10:02:18;8.23;;;2.22;;
51654;SDS011;37732;53.106;7.030;2022-10-19T10:04:53;5.97;;;2.15;;
51654;SDS011;37732;53.106;7.030;2022-10-19T10:07:22;8.02;;;2.42;;
51654;SDS011;37732;53.106;7.030;2022-10-19T10:09:56;8.77;;;2.30;;
51654;SDS011;37732;53.106;7.030;2022-10-19T10:12:23;8.90;;;2.10;;
51654;SDS011;37732;53.106;7.030;2022-10-19T10:14:49;9.55;;;2.40;;
51654;SDS011;37732;53.106;7.030;2022-10-19T10:17:19;7.10;;;2.60;;
51654;SDS011;37732;53.106;7.030;2022-10-19T10:19:51;7.72;;;2.10;;
51654;SDS011;37732;53.106;7.030;2022-10-19T10:22:35;8.38;;;2.20;;
51654;SDS011;37732;53.106;7.030;2022-10-19T10:25:02;10.60;;;2.00;;
51654;SDS011;37732;53.106;7.030;2022-10-19T10:27:39;10.63;;;2.45;;
51654;SDS011;37732;53.106;7.030;2022-10-19T10:30:06;10.27;;;2.85;;
51654;SDS011;37732;53.106;7.030;2022-10-19T10:32:36;7.57;;;2.22;;
51654;SDS011;37732;53.106;7.030;2022-10-19T10:38:15;6.95;;;2.20;;
51654;SDS011;37732;53.106;7.030;2022-10-19T10:40:50;6.15;;;2.33;;
51654;SDS011;37732;53.106;7.030;2022-10-19T10:43:48;11.80;;;3.22;;
51654;SDS011;37732;53.106;7.030;2022-10-19T10:46:41;5.90;;;1.88;;
51654;SDS011;37732;53.106;7.030;2022-10-19T10:49:16;9.27;;;2.35;;
51654;SDS011;37732;53.106;7.030;2022-10-19T10:51:47;8.15;;;2.05;;
51654;SDS011;37732;53.106;7.030;2022-10-19T10:54:25;10.68;;;3.55;;
51654;SDS011;37732;53.106;7.030;2022-10-19T10:57:17;6.75;;;2.38;;
51654;SDS011;37732;53.106;7.030;2022-10-19T10:59:46;7.15;;;2.10;;
51654;SDS011;37732;53.106;7.030;2022-10-19T11:05:10;7.70;;;2.38;;
51654;SDS011;37732;53.106;7.030;2022-10-19T11:07:52;9.32;;;2.67;;
51654;SDS011;37732;53.106;7.030;2022-10-19T11:10:41;6.43;;;2.50;;
51654;SDS011;37732;53.106;7.030;2022-10-19T11:13:28;8.95;;;3.20;;
51654;SDS011;37732;53.106;7.030;2022-10-19T11:15:59;8.05;;;2.55;;
51654;SDS011;37732;53.106;7.030;2022-10-19T11:21:08;7.55;;;2.08;;
51654;SDS011;37732;53.106;7.030;2022-10-19T11:24:02;7.10;;;2.67;;
51654;SDS011;37732;53.106;7.030;2022-10-19T11:31:52;7.32;;;2.17;;
51654;SDS011;37732;53.106;7.030;2022-10-19T11:34:35;7.85;;;2.60;;
51654;SDS011;37732;53.106;7.030;2022-10-19T11:43:01;10.48;;;2.20;;
51654;SDS011;37732;53.106;7.030;2022-10-19T11:45:57;7.78;;;2.60;;
51654;SDS011;37732;53.106;7.030;2022-10-19T11:56:18;7.68;;;2.45;;
51654;SDS011;37732;53.106;7.030;2022-10-19T12:12:31;9.57;;;2.40;;
51654;SDS011;37732;53.106;7.030;2022-10-19T12:17:36;6.45;;;2.40;;
51654;SDS011;37732;53.106;7.030;2022-10-19T12:20:50;9.00;;;2.40;;
51654;SDS011;37732;53.106;7.030;2022-10-19T12:23:00;5.13;;;1.70;;
51654;SDS011;37732;53.106;7.030;2022-10-19T12:25:30;6.85;;;2.17;;
51654;SDS011;37732;53.106;7.030;2022-10-19T12:27:58;5.35;;;1.95;;
51654;SDS011;37732;53.106;7.030;2022-10-19T12:30:24;5.13;;;2.10;;
51654;SDS011;37732;53.106;7.030;2022-10-19T12:38:28;6.55;;;2.38;;
51654;SDS011;37732;53.106;7.030;2022-10-19T12:41:17;10.68;;;2.03;;
51654;SDS011;37732;53.106;7.030;2022-10-19T12:43:54;4.85;;;1.88;;
51654;SDS011;37732;53.106;7.030;2022-10-19T12:46:52;7.75;;;2.08;;
51654;SDS011;37732;53.106;7.030;2022-10-19T12:51:55;7.55;;;2.13;;
51654;SDS011;37732;53.106;7.030;2022-10-19T12:54:24;6.82;;;1.83;;
51654;SDS011;37732;53.106;7.030;2022-10-19T12:56:52;9.88;;;2.35;;
51654;SDS011;37732;53.106;7.030;2022-10-19T12:59:27;6.32;;;1.63;;
51654;SDS011;37732;53.106;7.030;2022-10-19T13:01:55;7.90;;;2.20;;
51654;SDS011;37732;53.106;7.030;2022-10-19T13:04:26;7.78;;;2.22;;
51654;SDS011;37732;53.106;7.030;2022-10-19T13:09:42;6.68;;;1.88;;
51654;SDS011;37732;53.106;7.030;2022-10-19T13:22:42;8.63;;;2.40;;
51654;SDS011;37732;53.106;7.030;2022-10-19T13:27:49;4.50;;;1.90;;
51654;SDS011;37732;53.106;7.030;2022-10-19T13:33:46;10.20;;;2.67;;
51654;SDS011;37732;53.106;7.030;2022-10-19T13:41:13;7.53;;;2.72;;
51654;SDS011;37732;53.106;7.030;2022-10-19T13:54:14;12.45;;;4.45;;
51654;SDS011;37732;53.106;7.030;2022-10-19T13:57:05;6.10;;;3.67;;
51654;SDS011;37732;53.106;7.030;2022-10-19T14:05:47;8.35;;;3.95;;
51654;SDS011;37732;53.106;7.030;2022-10-19T14:11:14;8.55;;;4.78;;
51654;SDS011;37732;53.106;7.030;2022-10-19T14:14:10;8.32;;;3.55;;
51654;SDS011;37732;53.106;7.030;2022-10-19T14:19:39;10.63;;;4.43;;
51654;SDS011;37732;53.106;7.030;2022-10-19T14:22:18;11.20;;;4.80;;
51654;SDS011;37732;53.106;7.030;2022-10-19T14:24:45;8.88;;;4.68;;
51654;SDS011;37732;53.106;7.030;2022-10-19T14:27:15;11.40;;;4.88;;
51654;SDS011;37732;53.106;7.030;2022-10-19T14:29:46;8.63;;;4.90;;
51654;SDS011;37732;53.106;7.030;2022-10-19T14:32:14;9.63;;;5.32;;
51654;SDS011;37732;53.106;7.030;2022-10-19T14:34:43;10.15;;;5.82;;
51654;SDS011;37732;53.106;7.030;2022-10-19T14:37:16;8.45;;;6.38;;
51654;SDS011;37732;53.106;7.030;2022-10-19T14:39:55;11.25;;;7.38;;
51654;SDS011;37732;53.106;7.030;2022-10-19T14:42:34;11.07;;;7.60;;
51654;SDS011;37732;53.106;7.030;2022-10-19T14:45:09;9.52;;;7.57;;
51654;SDS011;37732;53.106;7.030;2022-10-19T14:47:51;9.57;;;7.38;;
51654;SDS011;37732;53.106;7.030;2022-10-19T14:50:42;10.00;;;7.95;;
51654;SDS011;37732;53.106;7.030;2022-10-19T14:55:37;11.75;;;8.23;;
51654;SDS011;37732;53.106;7.030;2022-10-19T14:58:08;8.73;;;7.22;;
51654;SDS011;37732;53.106;7.030;2022-10-19T15:00:37;8.68;;;6.85;;
51654;SDS011;37732;53.106;7.030;2022-10-19T15:03:04;9.48;;;6.68;;
51654;SDS011;37732;53.106;7.030;2022-10-19T15:05:32;8.55;;;6.03;;
51654;SDS011;37732;53.106;7.030;2022-10-19T15:08:35;12.38;;;6.63;;
51654;SDS011;37732;53.106;7.030;2022-10-19T15:10:52;9.32;;;6.22;;
51654;SDS011;37732;53.106;7.030;2022-10-19T15:16:32;11.90;;;6.65;;
51654;SDS011;37732;53.106;7.030;2022-10-19T15:19:02;8.57;;;6.40;;
51654;SDS011;37732;53.106;7.030;2022-10-19T15:21:29;11.15;;;7.25;;
51654;SDS011;37732;53.106;7.030;2022-10-19T15:24:04;14.30;;;7.90;;
51654;SDS011;37732;53.106;7.030;2022-10-19T15:26:40;10.68;;;6.65;;
51654;SDS011;37732;53.106;7.030;2022-10-19T15:29:19;10.55;;;6.13;;
51654;SDS011;37732;53.106;7.030;2022-10-19T15:31:52;12.05;;;6.50;;
51654;SDS011;37732;53.106;7.030;2022-10-19T15:34:22;6.90;;;5.55;;
51654;SDS011;37732;53.106;7.030;2022-10-19T15:36:58;9.20;;;5.43;;
51654;SDS011;37732;53.106;7.030;2022-10-19T15:44:57;8.23;;;3.55;;
51654;SDS011;37732;53.106;7.030;2022-10-19T15:47:24;8.10;;;3.40;;
51654;SDS011;37732;53.106;7.030;2022-10-19T15:49:54;8.13;;;3.20;;
51654;SDS011;37732;53.106;7.030;2022-10-19T15:52:23;5.65;;;3.15;;
51654;SDS011;37732;53.106;7.030;2022-10-19T15:54:52;8.35;;;3.03;;
51654;SDS011;37732;53.106;7.030;2022-10-19T15:57:20;5.80;;;2.60;;
51654;SDS011;37732;53.106;7.030;2022-10-19T15:59:49;10.50;;;3.28;;
51654;SDS011;37732;53.106;7.030;2022-10-19T16:02:15;9.20;;;4.85;;
51654;SDS011;37732;53.106;7.030;2022-10-19T16:04:41;5.15;;;2.90;;
51654;SDS011;37732;53.106;7.030;2022-10-19T16:07:07;7.57;;;2.90;;
51654;SDS011;37732;53.106;7.030;2022-10-19T16:09:40;6.15;;;2.67;;
51654;SDS011;37732;53.106;7.030;2022-10-19T16:12:07;6.85;;;2.53;;
51654;SDS011;37732;53.106;7.030;2022-10-19T16:14:34;6.38;;;3.00;;
51654;SDS011;37732;53.106;7.030;2022-10-19T16:17:00;8.52;;;3.50;;
51654;SDS011;37732;53.106;7.030;2022-10-19T16:19:26;8.18;;;2.95;;
51654;SDS011;37732;53.106;7.030;2022-10-19T16:21:52;7.07;;;2.92;;
51654;SDS011;37732;53.106;7.030;2022-10-19T16:24:17;8.07;;;2.83;;
51654;SDS011;37732;53.106;7.030;2022-10-19T16:26:43;7.72;;;2.65;;
51654;SDS011;37732;53.106;7.030;2022-10-19T16:29:09;8.20;;;2.67;;
51654;SDS011;37732;53.106;7.030;2022-10-19T16:31:36;7.35;;;2.50;;
51654;SDS011;37732;53.106;7.030;2022-10-19T16:34:01;7.47;;;2.70;;
51654;SDS011;37732;53.106;7.030;2022-10-19T16:36:27;5.35;;;2.65;;
51654;SDS011;37732;53.106;7.030;2022-10-19T16:38:53;7.25;;;2.45;;
51654;SDS011;37732;53.106;7.030;2022-10-19T16:41:19;7.53;;;2.85;;
51654;SDS011;37732;53.106;7.030;2022-10-19T16:43:45;4.53;;;2.17;;
51654;SDS011;37732;53.106;7.030;2022-10-19T16:46:12;7.75;;;2.40;;
51654;SDS011;37732;53.106;7.030;2022-10-19T16:48:38;7.88;;;2.45;;
51654;SDS011;37732;53.106;7.030;2022-10-19T16:53:30;6.95;;;2.78;;
51654;SDS011;37732;53.106;7.030;2022-10-19T16:56:02;6.18;;;2.28;;
51654;SDS011;37732;53.106;7.030;2022-10-19T16:58:36;8.82;;;2.50;;
51654;SDS011;37732;53.106;7.030;2022-10-19T17:01:06;6.70;;;2.45;;
51654;SDS011;37732;53.106;7.030;2022-10-19T17:03:37;6.10;;;2.25;;
51654;SDS011;37732;53.106;7.030;2022-10-19T17:06:05;7.97;;;2.35;;
51654;SDS011;37732;53.106;7.030;2022-10-19T17:08:32;7.95;;;3.17;;
51654;SDS011;37732;53.106;7.030;2022-10-19T17:13:56;7.22;;;2.33;;
51654;SDS011;37732;53.106;7.030;2022-10-19T17:16:24;8.93;;;2.45;;
51654;SDS011;37732;53.106;7.030;2022-10-19T17:18:53;9.93;;;2.60;;
51654;SDS011;37732;53.106;7.030;2022-10-19T17:21:21;5.68;;;2.38;;
51654;SDS011;37732;53.106;7.030;2022-10-19T17:23:51;6.25;;;2.65;;
51654;SDS011;37732;53.106;7.030;2022-10-19T17:26:18;6.60;;;2.45;;
51654;SDS011;37732;53.106;7.030;2022-10-19T17:28:56;5.07;;;2.35;;
51654;SDS011;37732;53.106;7.030;2022-10-19T17:31:23;6.90;;;3.05;;
51654;SDS011;37732;53.106;7.030;2022-10-19T17:33:49;5.70;;;2.20;;
51654;SDS011;37732;53.106;7.030;2022-10-19T17:36:16;6.20;;;2.67;;
51654;SDS011;37732;53.106;7.030;2022-10-19T17:38:46;5.60;;;2.50;;